sensor_id;sensor_type;location;lat;lon;timestamp;P1;durP1;ratioP1;P2;durP2;ratioP2
60211;SDS011;46079;48.686;15.598;2022-12-18T00:01:03;10.52;;;4.85;;
60211;SDS011;46079;48.686;15.598;2022-12-18T00:03:33;10.50;;;4.72;;
60211;SDS011;46079;48.686;15.598;2022-12-18T00:05:59;12.88;;;4.85;;
60211;SDS011;46079;48.686;15.598;2022-12-18T00:08:24;11.02;;;5.00;;
60211;SDS011;46079;48.686;15.598;2022-12-18T00:10:50;11.52;;;4.78;;
60211;SDS011;46079;48.686;15.598;2022-12-18T00:13:15;12.70;;;4.93;;
60211;SDS011;46079;48.686;15.598;2022-12-18T00:15:41;10.85;;;4.75;;
60211;SDS011;46079;48.686;15.598;2022-12-18T00:18:06;11.45;;;4.97;;
60211;SDS011;46079;48.686;15.598;2022-12-18T00:20:36;11.10;;;4.57;;
60211;SDS011;46079;48.686;15.598;2022-12-18T00:23:03;11.87;;;5.00;;
60211;SDS011;46079;48.686;15.598;2022-12-18T00:25:29;11.95;;;5.00;;
60211;SDS011;46079;48.686;15.598;2022-12-18T00:27:54;10.10;;;4.60;;
60211;SDS011;46079;48.686;15.598;2022-12-18T00:30:20;12.15;;;5.03;;
60211;SDS011;46079;48.686;15.598;2022-12-18T00:32:45;9.63;;;3.97;;
60211;SDS011;46079;48.686;15.598;2022-12-18T00:35:11;11.70;;;5.10;;
60211;SDS011;46079;48.686;15.598;2022-12-18T00:37:36;10.57;;;4.53;;
60211;SDS011;46079;48.686;15.598;2022-12-18T00:40:02;10.27;;;4.32;;
60211;SDS011;46079;48.686;15.598;2022-12-18T00:42:28;11.02;;;4.53;;
60211;SDS011;46079;48.686;15.598;2022-12-18T00:45:12;10.98;;;4.40;;
60211;SDS011;46079;48.686;15.598;2022-12-18T00:47:38;11.00;;;4.80;;
60211;SDS011;46079;48.686;15.598;2022-12-18T00:50:03;10.27;;;4.60;;
60211;SDS011;46079;48.686;15.598;2022-12-18T00:52:29;10.20;;;4.40;;
60211;SDS011;46079;48.686;15.598;2022-12-18T00:54:54;9.55;;;4.38;;
60211;SDS011;46079;48.686;15.598;2022-12-18T00:57:20;10.63;;;4.40;;
60211;SDS011;46079;48.686;15.598;2022-12-18T00:59:45;9.95;;;4.30;;
60211;SDS011;46079;48.686;15.598;2022-12-18T01:02:13;9.75;;;4.22;;
60211;SDS011;46079;48.686;15.598;2022-12-18T01:04:39;10.25;;;4.47;;
60211;SDS011;46079;48.686;15.598;2022-12-18T01:07:04;11.05;;;4.20;;
60211;SDS011;46079;48.686;15.598;2022-12-18T01:09:30;9.25;;;4.13;;
60211;SDS011;46079;48.686;15.598;2022-12-18T01:11:55;9.50;;;4.20;;
60211;SDS011;46079;48.686;15.598;2022-12-18T01:14:20;9.40;;;3.78;;
60211;SDS011;46079;48.686;15.598;2022-12-18T01:16:46;10.38;;;4.50;;
60211;SDS011;46079;48.686;15.598;2022-12-18T01:19:11;10.10;;;4.20;;
60211;SDS011;46079;48.686;15.598;2022-12-18T01:21:40;10.82;;;3.80;;
60211;SDS011;46079;48.686;15.598;2022-12-18T01:24:05;10.32;;;4.35;;
60211;SDS011;46079;48.686;15.598;2022-12-18T01:26:31;11.07;;;4.65;;
60211;SDS011;46079;48.686;15.598;2022-12-18T01:28:57;10.02;;;4.53;;
60211;SDS011;46079;48.686;15.598;2022-12-18T01:31:23;9.55;;;3.92;;
60211;SDS011;46079;48.686;15.598;2022-12-18T01:33:51;9.13;;;3.85;;
60211;SDS011;46079;48.686;15.598;2022-12-18T01:36:24;9.63;;;3.50;;
60211;SDS011;46079;48.686;15.598;2022-12-18T01:38:52;10.07;;;4.18;;
60211;SDS011;46079;48.686;15.598;2022-12-18T01:41:19;9.75;;;4.57;;
60211;SDS011;46079;48.686;15.598;2022-12-18T01:43:53;9.20;;;3.97;;
60211;SDS011;46079;48.686;15.598;2022-12-18T01:46:22;9.90;;;4.18;;
60211;SDS011;46079;48.686;15.598;2022-12-18T01:48:51;10.05;;;4.53;;
60211;SDS011;46079;48.686;15.598;2022-12-18T01:51:20;9.93;;;4.40;;
60211;SDS011;46079;48.686;15.598;2022-12-18T01:53:45;9.30;;;3.63;;
60211;SDS011;46079;48.686;15.598;2022-12-18T01:56:16;10.88;;;4.20;;
60211;SDS011;46079;48.686;15.598;2022-12-18T02:01:13;9.18;;;3.90;;
60211;SDS011;46079;48.686;15.598;2022-12-18T02:03:42;10.05;;;3.45;;
60211;SDS011;46079;48.686;15.598;2022-12-18T02:06:24;9.77;;;3.78;;
60211;SDS011;46079;48.686;15.598;2022-12-18T02:09:10;9.45;;;3.88;;
60211;SDS011;46079;48.686;15.598;2022-12-18T02:11:42;9.77;;;3.83;;
60211;SDS011;46079;48.686;15.598;2022-12-18T02:14:18;9.10;;;3.78;;
60211;SDS011;46079;48.686;15.598;2022-12-18T02:21:57;9.43;;;3.88;;
60211;SDS011;46079;48.686;15.598;2022-12-18T02:27:46;9.00;;;3.80;;
60211;SDS011;46079;48.686;15.598;2022-12-18T02:30:14;9.27;;;3.95;;
60211;SDS011;46079;48.686;15.598;2022-12-18T02:32:42;10.70;;;3.67;;
60211;SDS011;46079;48.686;15.598;2022-12-18T02:35:13;9.13;;;3.92;;
60211;SDS011;46079;48.686;15.598;2022-12-18T02:37:43;8.10;;;3.35;;
60211;SDS011;46079;48.686;15.598;2022-12-18T02:40:12;9.32;;;3.53;;
60211;SDS011;46079;48.686;15.598;2022-12-18T02:42:40;8.93;;;3.53;;
60211;SDS011;46079;48.686;15.598;2022-12-18T02:45:05;8.50;;;3.70;;
60211;SDS011;46079;48.686;15.598;2022-12-18T02:47:40;8.85;;;3.40;;
60211;SDS011;46079;48.686;15.598;2022-12-18T02:50:18;9.07;;;3.78;;
60211;SDS011;46079;48.686;15.598;2022-12-18T03:01:34;9.25;;;3.75;;
60211;SDS011;46079;48.686;15.598;2022-12-18T03:04:21;9.85;;;3.75;;
60211;SDS011;46079;48.686;15.598;2022-12-18T03:06:55;9.57;;;3.95;;
60211;SDS011;46079;48.686;15.598;2022-12-18T03:09:29;8.50;;;3.45;;
60211;SDS011;46079;48.686;15.598;2022-12-18T03:12:02;8.73;;;3.50;;
60211;SDS011;46079;48.686;15.598;2022-12-18T03:14:58;8.82;;;3.55;;
60211;SDS011;46079;48.686;15.598;2022-12-18T03:17:26;8.27;;;3.25;;
60211;SDS011;46079;48.686;15.598;2022-12-18T03:19:56;8.60;;;3.40;;
60211;SDS011;46079;48.686;15.598;2022-12-18T03:22:23;9.05;;;3.70;;
60211;SDS011;46079;48.686;15.598;2022-12-18T03:24:52;9.68;;;3.85;;
60211;SDS011;46079;48.686;15.598;2022-12-18T03:27:20;10.07;;;3.75;;
60211;SDS011;46079;48.686;15.598;2022-12-18T03:29:51;7.95;;;3.30;;
60211;SDS011;46079;48.686;15.598;2022-12-18T03:32:32;8.60;;;3.50;;
60211;SDS011;46079;48.686;15.598;2022-12-18T03:37:29;8.18;;;3.60;;
60211;SDS011;46079;48.686;15.598;2022-12-18T03:39:55;8.88;;;3.63;;
60211;SDS011;46079;48.686;15.598;2022-12-18T03:42:37;9.05;;;3.50;;
60211;SDS011;46079;48.686;15.598;2022-12-18T03:45:23;10.25;;;3.28;;
60211;SDS011;46079;48.686;15.598;2022-12-18T03:50:37;9.13;;;3.47;;
60211;SDS011;46079;48.686;15.598;2022-12-18T03:55:45;8.88;;;3.38;;
60211;SDS011;46079;48.686;15.598;2022-12-18T03:58:13;8.20;;;3.22;;
60211;SDS011;46079;48.686;15.598;2022-12-18T04:00:43;9.03;;;3.77;;
60211;SDS011;46079;48.686;15.598;2022-12-18T04:03:09;8.18;;;3.35;;
60211;SDS011;46079;48.686;15.598;2022-12-18T04:05:36;8.07;;;3.22;;
60211;SDS011;46079;48.686;15.598;2022-12-18T04:08:02;8.30;;;3.40;;
60211;SDS011;46079;48.686;15.598;2022-12-18T04:10:29;8.10;;;3.10;;
60211;SDS011;46079;48.686;15.598;2022-12-18T04:12:55;8.45;;;3.38;;
60211;SDS011;46079;48.686;15.598;2022-12-18T04:15:21;8.23;;;3.17;;
60211;SDS011;46079;48.686;15.598;2022-12-18T04:17:48;8.75;;;3.50;;
60211;SDS011;46079;48.686;15.598;2022-12-18T04:20:14;8.27;;;3.20;;
60211;SDS011;46079;48.686;15.598;2022-12-18T04:22:39;8.68;;;3.30;;
60211;SDS011;46079;48.686;15.598;2022-12-18T04:25:05;9.35;;;3.75;;
60211;SDS011;46079;48.686;15.598;2022-12-18T04:27:30;9.10;;;3.47;;
60211;SDS011;46079;48.686;15.598;2022-12-18T04:29:56;9.25;;;3.58;;
60211;SDS011;46079;48.686;15.598;2022-12-18T04:32:21;8.07;;;3.30;;
60211;SDS011;46079;48.686;15.598;2022-12-18T04:34:47;9.45;;;3.50;;
60211;SDS011;46079;48.686;15.598;2022-12-18T04:37:13;8.93;;;3.80;;
60211;SDS011;46079;48.686;15.598;2022-12-18T04:39:38;8.32;;;3.33;;
60211;SDS011;46079;48.686;15.598;2022-12-18T04:42:04;8.85;;;3.65;;
60211;SDS011;46079;48.686;15.598;2022-12-18T04:44:29;8.38;;;3.60;;
60211;SDS011;46079;48.686;15.598;2022-12-18T04:46:55;7.97;;;3.30;;
60211;SDS011;46079;48.686;15.598;2022-12-18T04:49:20;8.88;;;3.42;;
60211;SDS011;46079;48.686;15.598;2022-12-18T04:51:46;9.02;;;3.40;;
60211;SDS011;46079;48.686;15.598;2022-12-18T04:54:11;8.85;;;3.35;;
60211;SDS011;46079;48.686;15.598;2022-12-18T04:56:37;8.05;;;3.35;;
60211;SDS011;46079;48.686;15.598;2022-12-18T04:59:02;9.23;;;3.50;;
60211;SDS011;46079;48.686;15.598;2022-12-18T05:01:27;7.80;;;3.10;;
60211;SDS011;46079;48.686;15.598;2022-12-18T05:03:53;8.85;;;3.55;;
60211;SDS011;46079;48.686;15.598;2022-12-18T05:06:18;8.82;;;3.05;;
60211;SDS011;46079;48.686;15.598;2022-12-18T05:08:44;8.23;;;3.40;;
60211;SDS011;46079;48.686;15.598;2022-12-18T05:11:10;10.02;;;2.97;;
60211;SDS011;46079;48.686;15.598;2022-12-18T05:13:39;9.30;;;3.55;;
60211;SDS011;46079;48.686;15.598;2022-12-18T05:16:04;7.93;;;3.10;;
60211;SDS011;46079;48.686;15.598;2022-12-18T05:18:30;8.73;;;3.40;;
60211;SDS011;46079;48.686;15.598;2022-12-18T05:20:56;7.90;;;2.90;;
60211;SDS011;46079;48.686;15.598;2022-12-18T05:23:22;8.40;;;3.42;;
60211;SDS011;46079;48.686;15.598;2022-12-18T05:28:20;8.15;;;3.13;;
60211;SDS011;46079;48.686;15.598;2022-12-18T05:30:47;8.25;;;3.13;;
60211;SDS011;46079;48.686;15.598;2022-12-18T05:33:14;8.43;;;3.05;;
60211;SDS011;46079;48.686;15.598;2022-12-18T05:35:39;7.68;;;2.88;;
60211;SDS011;46079;48.686;15.598;2022-12-18T05:38:05;7.90;;;3.10;;
60211;SDS011;46079;48.686;15.598;2022-12-18T05:40:30;7.90;;;3.00;;
60211;SDS011;46079;48.686;15.598;2022-12-18T05:42:56;8.68;;;3.38;;
60211;SDS011;46079;48.686;15.598;2022-12-18T05:45:21;8.23;;;3.08;;
60211;SDS011;46079;48.686;15.598;2022-12-18T05:47:47;7.80;;;3.25;;
60211;SDS011;46079;48.686;15.598;2022-12-18T05:50:12;9.13;;;3.35;;
60211;SDS011;46079;48.686;15.598;2022-12-18T05:52:37;8.43;;;3.20;;
60211;SDS011;46079;48.686;15.598;2022-12-18T05:55:03;8.70;;;3.63;;
60211;SDS011;46079;48.686;15.598;2022-12-18T05:57:30;8.32;;;3.15;;
60211;SDS011;46079;48.686;15.598;2022-12-18T05:59:55;8.77;;;3.40;;
60211;SDS011;46079;48.686;15.598;2022-12-18T06:02:21;7.55;;;3.13;;
60211;SDS011;46079;48.686;15.598;2022-12-18T06:04:46;8.68;;;3.00;;
60211;SDS011;46079;48.686;15.598;2022-12-18T06:07:12;9.13;;;3.72;;
60211;SDS011;46079;48.686;15.598;2022-12-18T06:09:37;8.65;;;3.08;;
60211;SDS011;46079;48.686;15.598;2022-12-18T06:12:03;8.48;;;3.20;;
60211;SDS011;46079;48.686;15.598;2022-12-18T06:14:28;10.10;;;3.72;;
60211;SDS011;46079;48.686;15.598;2022-12-18T06:16:54;8.10;;;3.50;;
60211;SDS011;46079;48.686;15.598;2022-12-18T06:19:19;8.77;;;3.70;;
60211;SDS011;46079;48.686;15.598;2022-12-18T06:21:45;9.05;;;3.50;;
60211;SDS011;46079;48.686;15.598;2022-12-18T06:24:10;8.60;;;3.20;;
60211;SDS011;46079;48.686;15.598;2022-12-18T06:26:37;8.10;;;3.70;;
60211;SDS011;46079;48.686;15.598;2022-12-18T06:29:03;9.65;;;4.00;;
60211;SDS011;46079;48.686;15.598;2022-12-18T06:31:28;8.75;;;3.70;;
60211;SDS011;46079;48.686;15.598;2022-12-18T06:33:54;8.65;;;3.60;;
60211;SDS011;46079;48.686;15.598;2022-12-18T06:36:19;10.15;;;3.72;;
60211;SDS011;46079;48.686;15.598;2022-12-18T06:38:46;9.48;;;3.72;;
60211;SDS011;46079;48.686;15.598;2022-12-18T06:41:15;8.93;;;3.50;;
60211;SDS011;46079;48.686;15.598;2022-12-18T06:43:42;9.02;;;3.83;;
60211;SDS011;46079;48.686;15.598;2022-12-18T06:46:09;7.78;;;3.17;;
60211;SDS011;46079;48.686;15.598;2022-12-18T06:48:34;9.30;;;3.72;;
60211;SDS011;46079;48.686;15.598;2022-12-18T06:51:00;8.93;;;3.90;;
60211;SDS011;46079;48.686;15.598;2022-12-18T06:53:25;8.77;;;4.03;;
60211;SDS011;46079;48.686;15.598;2022-12-18T06:55:51;9.07;;;3.65;;
60211;SDS011;46079;48.686;15.598;2022-12-18T06:58:16;8.80;;;3.92;;
60211;SDS011;46079;48.686;15.598;2022-12-18T07:00:42;9.77;;;4.20;;
60211;SDS011;46079;48.686;15.598;2022-12-18T07:03:07;13.35;;;3.65;;
60211;SDS011;46079;48.686;15.598;2022-12-18T07:05:33;9.75;;;4.00;;
60211;SDS011;46079;48.686;15.598;2022-12-18T07:07:58;9.32;;;3.70;;
60211;SDS011;46079;48.686;15.598;2022-12-18T07:10:24;9.20;;;3.70;;
60211;SDS011;46079;48.686;15.598;2022-12-18T07:12:49;8.65;;;3.92;;
60211;SDS011;46079;48.686;15.598;2022-12-18T07:15:15;11.20;;;4.13;;
60211;SDS011;46079;48.686;15.598;2022-12-18T07:17:40;9.27;;;4.28;;
60211;SDS011;46079;48.686;15.598;2022-12-18T07:20:06;9.00;;;4.05;;
60211;SDS011;46079;48.686;15.598;2022-12-18T07:22:32;9.77;;;4.38;;
60211;SDS011;46079;48.686;15.598;2022-12-18T07:24:58;9.65;;;4.03;;
60211;SDS011;46079;48.686;15.598;2022-12-18T07:27:23;8.82;;;3.72;;
60211;SDS011;46079;48.686;15.598;2022-12-18T07:29:49;12.45;;;4.20;;
60211;SDS011;46079;48.686;15.598;2022-12-18T07:32:14;9.05;;;3.95;;
60211;SDS011;46079;48.686;15.598;2022-12-18T07:34:40;9.40;;;4.18;;
60211;SDS011;46079;48.686;15.598;2022-12-18T07:37:05;8.43;;;3.83;;
60211;SDS011;46079;48.686;15.598;2022-12-18T07:39:31;9.15;;;3.92;;
60211;SDS011;46079;48.686;15.598;2022-12-18T07:41:56;8.88;;;3.67;;
60211;SDS011;46079;48.686;15.598;2022-12-18T07:44:40;9.88;;;4.20;;
60211;SDS011;46079;48.686;15.598;2022-12-18T07:47:05;9.02;;;4.00;;
60211;SDS011;46079;48.686;15.598;2022-12-18T07:49:31;9.40;;;4.10;;
60211;SDS011;46079;48.686;15.598;2022-12-18T07:51:56;9.30;;;4.25;;
60211;SDS011;46079;48.686;15.598;2022-12-18T07:54:23;9.25;;;4.20;;
60211;SDS011;46079;48.686;15.598;2022-12-18T07:56:49;8.70;;;3.78;;
60211;SDS011;46079;48.686;15.598;2022-12-18T07:59:15;9.32;;;4.03;;
60211;SDS011;46079;48.686;15.598;2022-12-18T08:01:40;9.15;;;4.00;;
60211;SDS011;46079;48.686;15.598;2022-12-18T08:04:06;9.82;;;4.03;;
60211;SDS011;46079;48.686;15.598;2022-12-18T08:06:31;9.00;;;4.03;;
60211;SDS011;46079;48.686;15.598;2022-12-18T08:08:57;9.88;;;4.15;;
60211;SDS011;46079;48.686;15.598;2022-12-18T08:11:23;8.90;;;3.78;;
60211;SDS011;46079;48.686;15.598;2022-12-18T08:13:50;9.68;;;3.72;;
60211;SDS011;46079;48.686;15.598;2022-12-18T08:16:16;8.68;;;3.80;;
60211;SDS011;46079;48.686;15.598;2022-12-18T08:18:42;9.50;;;4.18;;
60211;SDS011;46079;48.686;15.598;2022-12-18T08:21:15;9.10;;;4.28;;
60211;SDS011;46079;48.686;15.598;2022-12-18T08:23:43;8.85;;;4.10;;
60211;SDS011;46079;48.686;15.598;2022-12-18T08:26:09;8.90;;;4.22;;
60211;SDS011;46079;48.686;15.598;2022-12-18T08:28:35;9.00;;;3.97;;
60211;SDS011;46079;48.686;15.598;2022-12-18T08:31:00;8.73;;;4.00;;
60211;SDS011;46079;48.686;15.598;2022-12-18T08:33:26;9.23;;;4.13;;
60211;SDS011;46079;48.686;15.598;2022-12-18T08:35:52;8.95;;;4.10;;
60211;SDS011;46079;48.686;15.598;2022-12-18T08:38:17;9.75;;;4.40;;
60211;SDS011;46079;48.686;15.598;2022-12-18T08:40:43;10.20;;;4.60;;
60211;SDS011;46079;48.686;15.598;2022-12-18T08:43:11;10.35;;;4.80;;
60211;SDS011;46079;48.686;15.598;2022-12-18T08:45:56;10.65;;;4.72;;
60211;SDS011;46079;48.686;15.598;2022-12-18T08:48:21;9.57;;;4.38;;
60211;SDS011;46079;48.686;15.598;2022-12-18T08:50:54;9.57;;;4.47;;
60211;SDS011;46079;48.686;15.598;2022-12-18T08:53:20;9.80;;;4.70;;
60211;SDS011;46079;48.686;15.598;2022-12-18T08:55:45;9.85;;;4.57;;
60211;SDS011;46079;48.686;15.598;2022-12-18T08:58:11;10.15;;;4.63;;
60211;SDS011;46079;48.686;15.598;2022-12-18T09:00:36;9.45;;;4.63;;
60211;SDS011;46079;48.686;15.598;2022-12-18T09:03:01;10.07;;;4.55;;
60211;SDS011;46079;48.686;15.598;2022-12-18T09:05:27;9.52;;;4.13;;
60211;SDS011;46079;48.686;15.598;2022-12-18T09:07:52;10.60;;;4.70;;
60211;SDS011;46079;48.686;15.598;2022-12-18T09:10:18;10.43;;;4.63;;
60211;SDS011;46079;48.686;15.598;2022-12-18T09:12:43;16.80;;;9.55;;
60211;SDS011;46079;48.686;15.598;2022-12-18T09:15:09;22.63;;;14.82;;
60211;SDS011;46079;48.686;15.598;2022-12-18T09:17:34;26.30;;;16.27;;
60211;SDS011;46079;48.686;15.598;2022-12-18T09:20:00;28.10;;;17.95;;
60211;SDS011;46079;48.686;15.598;2022-12-18T09:22:25;27.42;;;16.92;;
60211;SDS011;46079;48.686;15.598;2022-12-18T09:24:51;27.52;;;17.60;;
60211;SDS011;46079;48.686;15.598;2022-12-18T09:27:16;24.90;;;15.45;;
60211;SDS011;46079;48.686;15.598;2022-12-18T09:29:41;20.20;;;12.45;;
60211;SDS011;46079;48.686;15.598;2022-12-18T09:32:07;17.30;;;10.05;;
60211;SDS011;46079;48.686;15.598;2022-12-18T09:34:32;15.32;;;8.73;;
60211;SDS011;46079;48.686;15.598;2022-12-18T09:36:58;15.23;;;7.97;;
60211;SDS011;46079;48.686;15.598;2022-12-18T09:39:23;15.02;;;7.40;;
60211;SDS011;46079;48.686;15.598;2022-12-18T09:41:52;14.02;;;6.32;;
60211;SDS011;46079;48.686;15.598;2022-12-18T09:44:21;14.82;;;7.55;;
60211;SDS011;46079;48.686;15.598;2022-12-18T09:46:52;13.50;;;7.30;;
60211;SDS011;46079;48.686;15.598;2022-12-18T09:49:23;12.60;;;7.07;;
60211;SDS011;46079;48.686;15.598;2022-12-18T09:51:54;12.00;;;6.18;;
60211;SDS011;46079;48.686;15.598;2022-12-18T09:54:35;11.45;;;5.97;;
60211;SDS011;46079;48.686;15.598;2022-12-18T09:57:18;12.15;;;6.03;;
60211;SDS011;46079;48.686;15.598;2022-12-18T09:59:51;11.50;;;5.90;;
60211;SDS011;46079;48.686;15.598;2022-12-18T10:02:20;11.07;;;6.00;;
60211;SDS011;46079;48.686;15.598;2022-12-18T10:04:56;12.63;;;5.88;;
60211;SDS011;46079;48.686;15.598;2022-12-18T10:07:49;11.90;;;5.80;;
60211;SDS011;46079;48.686;15.598;2022-12-18T10:21:30;10.82;;;5.40;;
60211;SDS011;46079;48.686;15.598;2022-12-18T10:27:09;11.98;;;5.90;;
60211;SDS011;46079;48.686;15.598;2022-12-18T10:29:38;11.88;;;5.97;;
60211;SDS011;46079;48.686;15.598;2022-12-18T10:32:04;10.98;;;5.22;;
60211;SDS011;46079;48.686;15.598;2022-12-18T10:34:29;10.75;;;5.65;;
60211;SDS011;46079;48.686;15.598;2022-12-18T10:36:55;11.15;;;5.70;;
60211;SDS011;46079;48.686;15.598;2022-12-18T10:39:23;11.95;;;5.65;;
60211;SDS011;46079;48.686;15.598;2022-12-18T10:41:51;11.52;;;5.78;;
60211;SDS011;46079;48.686;15.598;2022-12-18T10:46:48;11.98;;;6.00;;
60211;SDS011;46079;48.686;15.598;2022-12-18T10:49:29;10.13;;;4.95;;
60211;SDS011;46079;48.686;15.598;2022-12-18T10:52:17;10.43;;;5.32;;
60211;SDS011;46079;48.686;15.598;2022-12-18T10:54:48;12.10;;;5.88;;
60211;SDS011;46079;48.686;15.598;2022-12-18T10:59:54;11.40;;;5.97;;
60211;SDS011;46079;48.686;15.598;2022-12-18T11:02:26;11.68;;;5.55;;
60211;SDS011;46079;48.686;15.598;2022-12-18T11:04:58;11.65;;;5.47;;
60211;SDS011;46079;48.686;15.598;2022-12-18T11:07:25;10.68;;;5.15;;
60211;SDS011;46079;48.686;15.598;2022-12-18T11:10:14;11.55;;;5.75;;
60211;SDS011;46079;48.686;15.598;2022-12-18T11:12:42;19.70;;;7.78;;
60211;SDS011;46079;48.686;15.598;2022-12-18T11:15:13;22.10;;;7.60;;
60211;SDS011;46079;48.686;15.598;2022-12-18T11:17:42;21.77;;;7.63;;
60211;SDS011;46079;48.686;15.598;2022-12-18T11:23:04;22.88;;;7.55;;
60211;SDS011;46079;48.686;15.598;2022-12-18T11:25:36;23.23;;;7.25;;
60211;SDS011;46079;48.686;15.598;2022-12-18T11:28:03;19.98;;;7.65;;
60211;SDS011;46079;48.686;15.598;2022-12-18T11:30:34;19.92;;;7.65;;
60211;SDS011;46079;48.686;15.598;2022-12-18T11:33:14;17.48;;;7.50;;
60211;SDS011;46079;48.686;15.598;2022-12-18T11:38:34;19.23;;;7.95;;
60211;SDS011;46079;48.686;15.598;2022-12-18T11:41:04;22.25;;;7.63;;
60211;SDS011;46079;48.686;15.598;2022-12-18T11:43:50;20.48;;;7.90;;
60211;SDS011;46079;48.686;15.598;2022-12-18T11:46:23;19.92;;;7.85;;
60211;SDS011;46079;48.686;15.598;2022-12-18T11:49:06;18.55;;;7.85;;
60211;SDS011;46079;48.686;15.598;2022-12-18T11:51:41;17.80;;;7.63;;
60211;SDS011;46079;48.686;15.598;2022-12-18T11:54:17;21.05;;;7.68;;
60211;SDS011;46079;48.686;15.598;2022-12-18T12:05:47;15.43;;;7.25;;
60211;SDS011;46079;48.686;15.598;2022-12-18T12:16:33;17.90;;;7.43;;
60211;SDS011;46079;48.686;15.598;2022-12-18T12:22:08;20.30;;;8.32;;
60211;SDS011;46079;48.686;15.598;2022-12-18T12:27:24;19.48;;;7.95;;
60211;SDS011;46079;48.686;15.598;2022-12-18T12:30:08;18.38;;;8.05;;
60211;SDS011;46079;48.686;15.598;2022-12-18T12:33:02;19.90;;;8.75;;
60211;SDS011;46079;48.686;15.598;2022-12-18T12:38:30;18.27;;;8.35;;
60211;SDS011;46079;48.686;15.598;2022-12-18T12:41:01;20.88;;;8.65;;
60211;SDS011;46079;48.686;15.598;2022-12-18T12:46:00;19.10;;;8.02;;
60211;SDS011;46079;48.686;15.598;2022-12-18T12:51:00;16.20;;;7.63;;
60211;SDS011;46079;48.686;15.598;2022-12-18T12:53:34;18.70;;;8.18;;
60211;SDS011;46079;48.686;15.598;2022-12-18T12:56:03;18.83;;;8.20;;
60211;SDS011;46079;48.686;15.598;2022-12-18T12:58:31;22.10;;;8.65;;
60211;SDS011;46079;48.686;15.598;2022-12-18T13:01:04;18.30;;;8.93;;
60211;SDS011;46079;48.686;15.598;2022-12-18T13:03:50;19.48;;;8.48;;
60211;SDS011;46079;48.686;15.598;2022-12-18T13:08:59;20.95;;;8.85;;
60211;SDS011;46079;48.686;15.598;2022-12-18T13:11:47;19.35;;;8.25;;
60211;SDS011;46079;48.686;15.598;2022-12-18T13:14:34;17.75;;;8.07;;
60211;SDS011;46079;48.686;15.598;2022-12-18T13:22:43;17.40;;;7.28;;
60211;SDS011;46079;48.686;15.598;2022-12-18T13:30:44;19.90;;;8.80;;
60211;SDS011;46079;48.686;15.598;2022-12-18T13:35:40;17.23;;;8.00;;
60211;SDS011;46079;48.686;15.598;2022-12-18T13:41:03;19.48;;;8.38;;
60211;SDS011;46079;48.686;15.598;2022-12-18T13:46:21;17.55;;;8.55;;
60211;SDS011;46079;48.686;15.598;2022-12-18T13:51:44;16.42;;;8.35;;
60211;SDS011;46079;48.686;15.598;2022-12-18T13:56:55;15.88;;;8.20;;
60211;SDS011;46079;48.686;15.598;2022-12-18T13:59:34;16.08;;;7.70;;
60211;SDS011;46079;48.686;15.598;2022-12-18T14:02:14;18.80;;;7.97;;
60211;SDS011;46079;48.686;15.598;2022-12-18T14:04:44;16.63;;;8.27;;
60211;SDS011;46079;48.686;15.598;2022-12-18T14:07:12;27.42;;;14.75;;
60211;SDS011;46079;48.686;15.598;2022-12-18T14:09:47;33.33;;;19.70;;
60211;SDS011;46079;48.686;15.598;2022-12-18T14:12:17;33.10;;;19.63;;
60211;SDS011;46079;48.686;15.598;2022-12-18T14:15:01;36.58;;;21.08;;
60211;SDS011;46079;48.686;15.598;2022-12-18T14:17:30;38.92;;;22.90;;
60211;SDS011;46079;48.686;15.598;2022-12-18T14:19:56;37.70;;;22.92;;
60211;SDS011;46079;48.686;15.598;2022-12-18T14:22:23;37.80;;;22.15;;
60211;SDS011;46079;48.686;15.598;2022-12-18T14:28:07;36.08;;;21.63;;
60211;SDS011;46079;48.686;15.598;2022-12-18T14:30:42;34.60;;;20.27;;
60211;SDS011;46079;48.686;15.598;2022-12-18T14:40:59;37.08;;;21.25;;
60211;SDS011;46079;48.686;15.598;2022-12-18T14:43:27;35.70;;;21.05;;
60211;SDS011;46079;48.686;15.598;2022-12-18T14:45:55;34.45;;;19.70;;
60211;SDS011;46079;48.686;15.598;2022-12-18T14:51:00;34.80;;;19.70;;
60211;SDS011;46079;48.686;15.598;2022-12-18T14:53:30;35.38;;;20.48;;
60211;SDS011;46079;48.686;15.598;2022-12-18T14:58:25;36.15;;;20.27;;
60211;SDS011;46079;48.686;15.598;2022-12-18T15:00:50;32.30;;;17.45;;
60211;SDS011;46079;48.686;15.598;2022-12-18T15:03:20;35.28;;;16.67;;
60211;SDS011;46079;48.686;15.598;2022-12-18T15:05:46;34.63;;;15.55;;
60211;SDS011;46079;48.686;15.598;2022-12-18T15:08:29;34.42;;;14.43;;
60211;SDS011;46079;48.686;15.598;2022-12-18T15:11:00;34.17;;;14.30;;
60211;SDS011;46079;48.686;15.598;2022-12-18T15:13:25;39.92;;;14.50;;
60211;SDS011;46079;48.686;15.598;2022-12-18T15:15:52;33.95;;;13.82;;
60211;SDS011;46079;48.686;15.598;2022-12-18T15:18:21;36.05;;;14.23;;
60211;SDS011;46079;48.686;15.598;2022-12-18T15:21:07;38.78;;;13.80;;
60211;SDS011;46079;48.686;15.598;2022-12-18T15:23:36;32.50;;;13.40;;
60211;SDS011;46079;48.686;15.598;2022-12-18T15:26:11;31.48;;;13.10;;
60211;SDS011;46079;48.686;15.598;2022-12-18T15:28:52;32.17;;;13.20;;
60211;SDS011;46079;48.686;15.598;2022-12-18T15:31:32;29.55;;;12.68;;
60211;SDS011;46079;48.686;15.598;2022-12-18T15:34:10;30.45;;;12.95;;
60211;SDS011;46079;48.686;15.598;2022-12-18T15:36:38;30.75;;;13.13;;
60211;SDS011;46079;48.686;15.598;2022-12-18T15:39:04;31.35;;;12.25;;
60211;SDS011;46079;48.686;15.598;2022-12-18T15:41:35;29.90;;;12.23;;
60211;SDS011;46079;48.686;15.598;2022-12-18T15:44:01;29.20;;;12.45;;
60211;SDS011;46079;48.686;15.598;2022-12-18T15:46:27;27.95;;;12.30;;
60211;SDS011;46079;48.686;15.598;2022-12-18T15:48:54;29.70;;;12.75;;
60211;SDS011;46079;48.686;15.598;2022-12-18T15:51:28;29.88;;;12.15;;
60211;SDS011;46079;48.686;15.598;2022-12-18T15:53:58;30.88;;;12.57;;
60211;SDS011;46079;48.686;15.598;2022-12-18T15:56:25;26.13;;;11.88;;
60211;SDS011;46079;48.686;15.598;2022-12-18T15:59:13;25.70;;;12.38;;
60211;SDS011;46079;48.686;15.598;2022-12-18T16:01:41;28.15;;;12.60;;
60211;SDS011;46079;48.686;15.598;2022-12-18T16:04:10;27.55;;;12.25;;
60211;SDS011;46079;48.686;15.598;2022-12-18T16:06:38;25.90;;;11.65;;
60211;SDS011;46079;48.686;15.598;2022-12-18T16:09:03;29.27;;;12.43;;
60211;SDS011;46079;48.686;15.598;2022-12-18T16:11:30;28.60;;;11.80;;
60211;SDS011;46079;48.686;15.598;2022-12-18T16:16:44;26.83;;;12.00;;
60211;SDS011;46079;48.686;15.598;2022-12-18T16:19:14;27.80;;;12.00;;
60211;SDS011;46079;48.686;15.598;2022-12-18T16:21:39;25.33;;;11.20;;
60211;SDS011;46079;48.686;15.598;2022-12-18T16:24:05;26.63;;;12.00;;
60211;SDS011;46079;48.686;15.598;2022-12-18T16:26:37;26.98;;;11.93;;
60211;SDS011;46079;48.686;15.598;2022-12-18T16:29:02;26.38;;;11.80;;
60211;SDS011;46079;48.686;15.598;2022-12-18T16:31:27;30.10;;;13.10;;
60211;SDS011;46079;48.686;15.598;2022-12-18T16:39:13;26.40;;;10.80;;
60211;SDS011;46079;48.686;15.598;2022-12-18T16:41:39;26.00;;;11.52;;
60211;SDS011;46079;48.686;15.598;2022-12-18T16:44:04;24.45;;;10.95;;
60211;SDS011;46079;48.686;15.598;2022-12-18T16:46:33;27.52;;;10.63;;
60211;SDS011;46079;48.686;15.598;2022-12-18T16:48:59;24.33;;;11.25;;
60211;SDS011;46079;48.686;15.598;2022-12-18T16:51:26;25.42;;;11.68;;
60211;SDS011;46079;48.686;15.598;2022-12-18T16:53:52;22.75;;;10.50;;